sensor_id;sensor_type;location;lat;lon;timestamp;pressure;altitude;pressure_sealevel;temperature;humidity
67803;BME280;54601;51.378;-1.342;2023-06-14T00:00:07;100321.74;;;26.60;30.53
67803;BME280;54601;51.378;-1.342;2023-06-14T00:02:31;100322.30;;;26.57;30.79
67803;BME280;54601;51.378;-1.342;2023-06-14T00:04:56;100323.83;;;26.52;30.58
67803;BME280;54601;51.378;-1.342;2023-06-14T00:09:47;100328.03;;;26.55;30.58
67803;BME280;54601;51.378;-1.342;2023-06-14T00:12:12;100330.16;;;26.47;30.27
67803;BME280;54601;51.378;-1.342;2023-06-14T00:14:37;100327.30;;;26.50;30.25
67803;BME280;54601;51.378;-1.342;2023-06-14T00:17:03;100327.12;;;26.37;31.00
67803;BME280;54601;51.378;-1.342;2023-06-14T00:19:28;100326.49;;;26.91;30.44
67803;BME280;54601;51.378;-1.342;2023-06-14T00:21:53;100329.12;;;26.44;30.55
67803;BME280;54601;51.378;-1.342;2023-06-14T00:24:19;100329.94;;;26.39;30.43
67803;BME280;54601;51.378;-1.342;2023-06-14T00:26:43;100330.95;;;26.28;30.73
67803;BME280;54601;51.378;-1.342;2023-06-14T00:29:08;100332.92;;;26.59;30.72
67803;BME280;54601;51.378;-1.342;2023-06-14T00:31:34;100330.25;;;26.32;30.51
67803;BME280;54601;51.378;-1.342;2023-06-14T00:33:59;100329.13;;;26.34;30.76
67803;BME280;54601;51.378;-1.342;2023-06-14T00:36:24;100331.04;;;26.32;30.76
67803;BME280;54601;51.378;-1.342;2023-06-14T00:38:49;100329.47;;;26.18;30.47
67803;BME280;54601;51.378;-1.342;2023-06-14T00:41:15;100331.00;;;26.26;30.65
67803;BME280;54601;51.378;-1.342;2023-06-14T00:43:40;100329.71;;;26.14;30.96
67803;BME280;54601;51.378;-1.342;2023-06-14T00:46:06;100333.20;;;26.65;30.93
67803;BME280;54601;51.378;-1.342;2023-06-14T00:48:31;100336.40;;;26.38;30.53
67803;BME280;54601;51.378;-1.342;2023-06-14T00:50:57;100339.75;;;26.23;30.65
67803;BME280;54601;51.378;-1.342;2023-06-14T00:53:21;100339.37;;;26.73;30.62
67803;BME280;54601;51.378;-1.342;2023-06-14T00:55:47;100337.01;;;26.43;30.82
67803;BME280;54601;51.378;-1.342;2023-06-14T00:58:13;100333.86;;;26.34;30.89
67803;BME280;54601;51.378;-1.342;2023-06-14T01:00:38;100336.48;;;26.24;30.88
67803;BME280;54601;51.378;-1.342;2023-06-14T01:03:03;100334.55;;;26.06;30.79
67803;BME280;54601;51.378;-1.342;2023-06-14T01:05:29;100337.38;;;25.97;30.88
67803;BME280;54601;51.378;-1.342;2023-06-14T01:08:05;100334.22;;;26.17;31.02
67803;BME280;54601;51.378;-1.342;2023-06-14T01:10:27;100331.88;;;26.57;30.51
67803;BME280;54601;51.378;-1.342;2023-06-14T01:12:51;100334.54;;;26.32;30.88
67803;BME280;54601;51.378;-1.342;2023-06-14T01:15:10;100334.26;;;26.35;30.88
67803;BME280;54601;51.378;-1.342;2023-06-14T01:17:36;100334.97;;;25.99;30.97
67803;BME280;54601;51.378;-1.342;2023-06-14T01:20:01;100331.48;;;25.79;30.90
67803;BME280;54601;51.378;-1.342;2023-06-14T01:22:26;100331.59;;;26.11;30.66
67803;BME280;54601;51.378;-1.342;2023-06-14T01:24:51;100331.30;;;26.09;30.67
67803;BME280;54601;51.378;-1.342;2023-06-14T01:27:16;100329.17;;;26.26;31.18
67803;BME280;54601;51.378;-1.342;2023-06-14T01:29:42;100334.10;;;25.89;31.17
67803;BME280;54601;51.378;-1.342;2023-06-14T01:32:07;100339.45;;;26.13;30.85
67803;BME280;54601;51.378;-1.342;2023-06-14T01:34:32;100337.96;;;25.78;30.96
67803;BME280;54601;51.378;-1.342;2023-06-14T01:36:58;100335.60;;;25.70;31.25
67803;BME280;54601;51.378;-1.342;2023-06-14T01:39:23;100335.80;;;25.69;31.14
67803;BME280;54601;51.378;-1.342;2023-06-14T01:41:49;100337.99;;;25.77;31.27
67803;BME280;54601;51.378;-1.342;2023-06-14T01:44:14;100330.21;;;25.77;31.31
67803;BME280;54601;51.378;-1.342;2023-06-14T01:46:39;100331.67;;;25.84;31.13
67803;BME280;54601;51.378;-1.342;2023-06-14T01:49:04;100335.01;;;25.78;31.59
67803;BME280;54601;51.378;-1.342;2023-06-14T01:51:29;100339.57;;;25.66;31.06
67803;BME280;54601;51.378;-1.342;2023-06-14T01:53:54;100345.57;;;25.65;31.24
67803;BME280;54601;51.378;-1.342;2023-06-14T01:56:19;100343.20;;;25.44;31.49
67803;BME280;54601;51.378;-1.342;2023-06-14T01:58:45;100345.51;;;25.71;31.23
67803;BME280;54601;51.378;-1.342;2023-06-14T02:01:10;100346.29;;;25.67;31.26
67803;BME280;54601;51.378;-1.342;2023-06-14T02:03:36;100350.33;;;25.48;31.61
67803;BME280;54601;51.378;-1.342;2023-06-14T02:06:01;100348.68;;;25.73;30.98
67803;BME280;54601;51.378;-1.342;2023-06-14T02:08:26;100348.34;;;25.62;31.14
67803;BME280;54601;51.378;-1.342;2023-06-14T02:10:51;100345.02;;;25.60;31.48
67803;BME280;54601;51.378;-1.342;2023-06-14T02:13:17;100345.29;;;25.56;31.21
67803;BME280;54601;51.378;-1.342;2023-06-14T02:15:42;100344.02;;;25.66;30.98
67803;BME280;54601;51.378;-1.342;2023-06-14T02:18:07;100347.48;;;25.56;31.18
67803;BME280;54601;51.378;-1.342;2023-06-14T02:20:32;100348.13;;;25.41;31.48
67803;BME280;54601;51.378;-1.342;2023-06-14T02:22:58;100347.38;;;25.32;31.39
67803;BME280;54601;51.378;-1.342;2023-06-14T02:25:23;100343.85;;;25.65;30.88
67803;BME280;54601;51.378;-1.342;2023-06-14T02:27:48;100341.58;;;25.36;31.25
67803;BME280;54601;51.378;-1.342;2023-06-14T02:30:14;100338.30;;;25.68;30.51
67803;BME280;54601;51.378;-1.342;2023-06-14T02:32:39;100337.40;;;25.60;30.71
67803;BME280;54601;51.378;-1.342;2023-06-14T02:35:05;100335.29;;;25.75;30.51
67803;BME280;54601;51.378;-1.342;2023-06-14T02:37:29;100336.97;;;25.61;30.62
67803;BME280;54601;51.378;-1.342;2023-06-14T02:39:55;100339.96;;;25.38;31.08
67803;BME280;54601;51.378;-1.342;2023-06-14T02:42:19;100336.73;;;25.34;30.88
67803;BME280;54601;51.378;-1.342;2023-06-14T02:44:45;100333.28;;;25.27;30.88
67803;BME280;54601;51.378;-1.342;2023-06-14T02:47:10;100328.71;;;25.35;31.16
67803;BME280;54601;51.378;-1.342;2023-06-14T02:49:35;100326.92;;;25.64;30.56
67803;BME280;54601;51.378;-1.342;2023-06-14T02:52:00;100328.64;;;25.60;31.57
67803;BME280;54601;51.378;-1.342;2023-06-14T02:54:25;100333.21;;;25.38;31.05
67803;BME280;54601;51.378;-1.342;2023-06-14T02:56:50;100335.01;;;25.33;30.43
67803;BME280;54601;51.378;-1.342;2023-06-14T02:59:16;100336.54;;;25.18;30.88
67803;BME280;54601;51.378;-1.342;2023-06-14T03:01:41;100335.05;;;25.21;31.39
67803;BME280;54601;51.378;-1.342;2023-06-14T03:04:07;100337.10;;;25.21;31.18
67803;BME280;54601;51.378;-1.342;2023-06-14T03:06:32;100339.90;;;25.27;30.90
67803;BME280;54601;51.378;-1.342;2023-06-14T03:08:57;100343.00;;;24.92;31.17
67803;BME280;54601;51.378;-1.342;2023-06-14T03:11:22;100345.13;;;25.22;31.23
67803;BME280;54601;51.378;-1.342;2023-06-14T03:13:48;100345.46;;;24.93;31.29
67803;BME280;54601;51.378;-1.342;2023-06-14T03:16:13;100343.35;;;24.67;31.81
67803;BME280;54601;51.378;-1.342;2023-06-14T03:18:38;100342.65;;;24.69;31.29
67803;BME280;54601;51.378;-1.342;2023-06-14T03:21:04;100342.43;;;25.15;31.21
67803;BME280;54601;51.378;-1.342;2023-06-14T03:23:29;100341.88;;;25.24;30.56
67803;BME280;54601;51.378;-1.342;2023-06-14T03:25:54;100338.28;;;24.97;30.90
67803;BME280;54601;51.378;-1.342;2023-06-14T03:28:20;100341.62;;;25.00;30.97
67803;BME280;54601;51.378;-1.342;2023-06-14T03:30:45;100338.90;;;24.79;31.06
67803;BME280;54601;51.378;-1.342;2023-06-14T03:33:10;100342.50;;;25.18;30.82
67803;BME280;54601;51.378;-1.342;2023-06-14T03:35:36;100343.46;;;24.88;30.81
67803;BME280;54601;51.378;-1.342;2023-06-14T03:38:01;100344.40;;;24.88;31.32
67803;BME280;54601;51.378;-1.342;2023-06-14T03:40:26;100344.41;;;24.92;31.01
67803;BME280;54601;51.378;-1.342;2023-06-14T03:42:52;100342.57;;;24.61;31.23
67803;BME280;54601;51.378;-1.342;2023-06-14T03:45:17;100345.46;;;25.02;30.95
67803;BME280;54601;51.378;-1.342;2023-06-14T03:47:42;100349.35;;;24.86;31.01
67803;BME280;54601;51.378;-1.342;2023-06-14T03:50:08;100353.82;;;25.27;30.17
67803;BME280;54601;51.378;-1.342;2023-06-14T03:52:33;100351.58;;;24.92;30.97
67803;BME280;54601;51.378;-1.342;2023-06-14T03:54:58;100354.47;;;25.16;30.61
67803;BME280;54601;51.378;-1.342;2023-06-14T03:57:23;100353.38;;;24.78;31.44
67803;BME280;54601;51.378;-1.342;2023-06-14T03:59:49;100354.61;;;24.81;31.11
67803;BME280;54601;51.378;-1.342;2023-06-14T04:02:14;100356.13;;;24.56;31.22
67803;BME280;54601;51.378;-1.342;2023-06-14T04:04:39;100359.36;;;24.65;31.08
67803;BME280;54601;51.378;-1.342;2023-06-14T04:07:05;100354.97;;;24.75;30.73
67803;BME280;54601;51.378;-1.342;2023-06-14T04:09:30;100355.80;;;24.75;30.80
67803;BME280;54601;51.378;-1.342;2023-06-14T04:11:55;100350.97;;;24.36;31.14
67803;BME280;54601;51.378;-1.342;2023-06-14T04:14:21;100346.38;;;24.74;31.13
67803;BME280;54601;51.378;-1.342;2023-06-14T04:16:46;100347.35;;;25.23;30.77
67803;BME280;54601;51.378;-1.342;2023-06-14T04:19:11;100346.99;;;24.62;30.81
67803;BME280;54601;51.378;-1.342;2023-06-14T04:21:36;100351.63;;;24.93;31.14
67803;BME280;54601;51.378;-1.342;2023-06-14T04:24:02;100356.47;;;24.77;30.95
67803;BME280;54601;51.378;-1.342;2023-06-14T04:26:27;100363.31;;;24.35;31.35
67803;BME280;54601;51.378;-1.342;2023-06-14T04:28:53;100358.43;;;24.59;30.93
67803;BME280;54601;51.378;-1.342;2023-06-14T04:31:18;100360.49;;;24.49;31.28
67803;BME280;54601;51.378;-1.342;2023-06-14T04:33:43;100353.39;;;25.02;30.82
67803;BME280;54601;51.378;-1.342;2023-06-14T04:36:09;100356.22;;;24.82;30.71
67803;BME280;54601;51.378;-1.342;2023-06-14T04:38:34;100360.29;;;24.55;30.96
67803;BME280;54601;51.378;-1.342;2023-06-14T04:40:59;100357.53;;;24.53;30.91
67803;BME280;54601;51.378;-1.342;2023-06-14T04:43:25;100357.61;;;24.51;30.42
67803;BME280;54601;51.378;-1.342;2023-06-14T04:45:50;100355.68;;;24.83;30.74
67803;BME280;54601;51.378;-1.342;2023-06-14T04:48:15;100359.02;;;24.80;30.93
67803;BME280;54601;51.378;-1.342;2023-06-14T04:50:41;100359.44;;;24.92;30.83
67803;BME280;54601;51.378;-1.342;2023-06-14T04:53:06;100364.35;;;24.42;31.05
67803;BME280;54601;51.378;-1.342;2023-06-14T04:55:31;100364.09;;;24.78;30.67
67803;BME280;54601;51.378;-1.342;2023-06-14T04:57:57;100363.43;;;24.94;30.43
67803;BME280;54601;51.378;-1.342;2023-06-14T05:00:22;100365.40;;;24.68;30.58
67803;BME280;54601;51.378;-1.342;2023-06-14T05:02:47;100375.17;;;24.67;30.96
67803;BME280;54601;51.378;-1.342;2023-06-14T05:05:13;100375.89;;;24.81;30.70
67803;BME280;54601;51.378;-1.342;2023-06-14T05:07:38;100373.97;;;25.30;30.40
67803;BME280;54601;51.378;-1.342;2023-06-14T05:10:04;100373.56;;;24.82;30.18
67803;BME280;54601;51.378;-1.342;2023-06-14T05:12:29;100371.92;;;24.77;30.77
67803;BME280;54601;51.378;-1.342;2023-06-14T05:14:54;100371.43;;;24.82;30.56
67803;BME280;54601;51.378;-1.342;2023-06-14T05:17:19;100375.02;;;25.04;30.69
67803;BME280;54601;51.378;-1.342;2023-06-14T05:19:45;100375.06;;;24.85;30.32
67803;BME280;54601;51.378;-1.342;2023-06-14T05:22:10;100376.30;;;24.44;30.60
67803;BME280;54601;51.378;-1.342;2023-06-14T05:24:36;100374.01;;;24.35;31.11
67803;BME280;54601;51.378;-1.342;2023-06-14T05:27:01;100374.04;;;24.75;30.62
67803;BME280;54601;51.378;-1.342;2023-06-14T05:29:26;100376.31;;;24.77;30.52
67803;BME280;54601;51.378;-1.342;2023-06-14T05:31:51;100373.68;;;24.88;30.77
67803;BME280;54601;51.378;-1.342;2023-06-14T05:34:17;100370.66;;;24.61;30.55
67803;BME280;54601;51.378;-1.342;2023-06-14T05:36:42;100368.49;;;24.64;30.78
67803;BME280;54601;51.378;-1.342;2023-06-14T05:39:08;100365.51;;;24.59;30.62
67803;BME280;54601;51.378;-1.342;2023-06-14T05:41:33;100367.40;;;24.53;31.08
67803;BME280;54601;51.378;-1.342;2023-06-14T05:43:58;100367.16;;;24.28;31.36
67803;BME280;54601;51.378;-1.342;2023-06-14T05:46:24;100366.24;;;24.38;30.83
67803;BME280;54601;51.378;-1.342;2023-06-14T05:48:49;100362.57;;;24.62;30.44
67803;BME280;54601;51.378;-1.342;2023-06-14T05:51:14;100363.16;;;25.06;30.57
67803;BME280;54601;51.378;-1.342;2023-06-14T05:53:40;100364.10;;;24.97;30.67
67803;BME280;54601;51.378;-1.342;2023-06-14T05:56:05;100367.75;;;24.67;30.93
67803;BME280;54601;51.378;-1.342;2023-06-14T05:58:30;100371.79;;;24.61;30.71
67803;BME280;54601;51.378;-1.342;2023-06-14T06:00:56;100373.39;;;24.55;30.69
67803;BME280;54601;51.378;-1.342;2023-06-14T06:03:22;100367.66;;;25.20;30.72
67803;BME280;54601;51.378;-1.342;2023-06-14T06:05:46;100367.12;;;24.74;30.81
67803;BME280;54601;51.378;-1.342;2023-06-14T06:08:12;100365.87;;;24.92;30.35
67803;BME280;54601;51.378;-1.342;2023-06-14T06:10:37;100373.13;;;25.00;30.57
67803;BME280;54601;51.378;-1.342;2023-06-14T06:13:03;100372.54;;;25.13;30.39
67803;BME280;54601;51.378;-1.342;2023-06-14T06:15:28;100374.21;;;25.27;30.26
67803;BME280;54601;51.378;-1.342;2023-06-14T06:17:53;100378.43;;;25.35;30.26
67803;BME280;54601;51.378;-1.342;2023-06-14T06:20:19;100382.21;;;25.35;30.68
67803;BME280;54601;51.378;-1.342;2023-06-14T06:22:44;100380.99;;;25.29;30.47
67803;BME280;54601;51.378;-1.342;2023-06-14T06:25:10;100381.39;;;25.23;30.44
67803;BME280;54601;51.378;-1.342;2023-06-14T06:27:35;100381.03;;;25.46;30.00
67803;BME280;54601;51.378;-1.342;2023-06-14T06:30:00;100382.88;;;25.52;30.02
67803;BME280;54601;51.378;-1.342;2023-06-14T06:32:25;100385.70;;;25.70;29.61
67803;BME280;54601;51.378;-1.342;2023-06-14T06:34:51;100384.28;;;25.47;29.67
67803;BME280;54601;51.378;-1.342;2023-06-14T06:37:16;100386.23;;;25.63;29.62
67803;BME280;54601;51.378;-1.342;2023-06-14T06:39:41;100391.24;;;25.99;29.10
67803;BME280;54601;51.378;-1.342;2023-06-14T06:42:07;100392.13;;;26.30;29.17
67803;BME280;54601;51.378;-1.342;2023-06-14T06:44:33;100388.80;;;26.41;28.98
67803;BME280;54601;51.378;-1.342;2023-06-14T06:46:58;100388.24;;;26.33;28.92
67803;BME280;54601;51.378;-1.342;2023-06-14T06:49:23;100385.23;;;26.42;28.82
67803;BME280;54601;51.378;-1.342;2023-06-14T06:54:14;100377.02;;;26.50;28.73
67803;BME280;54601;51.378;-1.342;2023-06-14T06:56:39;100379.21;;;26.52;28.74
67803;BME280;54601;51.378;-1.342;2023-06-14T06:59:04;100379.65;;;26.66;28.63
67803;BME280;54601;51.378;-1.342;2023-06-14T07:01:30;100380.94;;;26.58;28.79
67803;BME280;54601;51.378;-1.342;2023-06-14T07:03:55;100383.60;;;26.54;28.94
67803;BME280;54601;51.378;-1.342;2023-06-14T07:06:20;100388.65;;;26.51;28.90
67803;BME280;54601;51.378;-1.342;2023-06-14T07:08:46;100390.41;;;26.54;28.83
67803;BME280;54601;51.378;-1.342;2023-06-14T07:11:11;100390.04;;;26.62;28.74
67803;BME280;54601;51.378;-1.342;2023-06-14T07:13:36;100391.26;;;26.39;28.60
67803;BME280;54601;51.378;-1.342;2023-06-14T07:16:04;100389.53;;;26.72;28.47
67803;BME280;54601;51.378;-1.342;2023-06-14T07:18:27;100391.30;;;26.75;28.40
67803;BME280;54601;51.378;-1.342;2023-06-14T07:20:53;100392.11;;;26.75;28.37
67803;BME280;54601;51.378;-1.342;2023-06-14T07:23:18;100391.01;;;26.86;28.32
67803;BME280;54601;51.378;-1.342;2023-06-14T07:25:43;100389.09;;;26.88;28.49
67803;BME280;54601;51.378;-1.342;2023-06-14T07:28:08;100388.42;;;26.87;28.51
67803;BME280;54601;51.378;-1.342;2023-06-14T07:30:35;100387.06;;;26.91;28.50
67803;BME280;54601;51.378;-1.342;2023-06-14T07:32:59;100390.83;;;26.90;28.47
67803;BME280;54601;51.378;-1.342;2023-06-14T07:35:24;100390.67;;;26.95;28.47
67803;BME280;54601;51.378;-1.342;2023-06-14T07:37:50;100389.46;;;27.22;28.46
67803;BME280;54601;51.378;-1.342;2023-06-14T07:40:15;100391.94;;;27.03;28.41
67803;BME280;54601;51.378;-1.342;2023-06-14T07:42:40;100390.66;;;27.06;28.39
67803;BME280;54601;51.378;-1.342;2023-06-14T07:45:06;100395.05;;;27.05;28.46
67803;BME280;54601;51.378;-1.342;2023-06-14T07:47:31;100393.55;;;27.14;28.34
67803;BME280;54601;51.378;-1.342;2023-06-14T07:49:56;100394.13;;;27.17;28.34
67803;BME280;54601;51.378;-1.342;2023-06-14T07:52:22;100394.88;;;27.25;28.29
67803;BME280;54601;51.378;-1.342;2023-06-14T07:54:47;100396.16;;;26.78;28.26
67803;BME280;54601;51.378;-1.342;2023-06-14T07:57:13;100395.65;;;27.23;28.35
67803;BME280;54601;51.378;-1.342;2023-06-14T07:59:38;100398.43;;;27.35;28.25
67803;BME280;54601;51.378;-1.342;2023-06-14T08:02:03;100401.51;;;26.84;28.28
67803;BME280;54601;51.378;-1.342;2023-06-14T08:04:28;100401.42;;;27.38;28.27
67803;BME280;54601;51.378;-1.342;2023-06-14T08:06:54;100396.10;;;26.94;28.20
67803;BME280;54601;51.378;-1.342;2023-06-14T08:09:19;100393.90;;;27.48;28.13
67803;BME280;54601;51.378;-1.342;2023-06-14T08:11:44;100395.37;;;27.21;28.18
67803;BME280;54601;51.378;-1.342;2023-06-14T08:14:10;100393.76;;;27.56;28.09
67803;BME280;54601;51.378;-1.342;2023-06-14T08:16:35;100393.79;;;27.05;28.13
67803;BME280;54601;51.378;-1.342;2023-06-14T08:19:00;100395.28;;;27.30;28.10
67803;BME280;54601;51.378;-1.342;2023-06-14T08:21:26;100394.40;;;27.05;28.17
67803;BME280;54601;51.378;-1.342;2023-06-14T08:23:51;100395.49;;;27.09;28.14
67803;BME280;54601;51.378;-1.342;2023-06-14T08:26:16;100397.02;;;27.15;28.14
67803;BME280;54601;51.378;-1.342;2023-06-14T08:28:41;100397.77;;;27.65;28.16
67803;BME280;54601;51.378;-1.342;2023-06-14T08:31:09;100397.00;;;27.19;28.15
67803;BME280;54601;51.378;-1.342;2023-06-14T08:33:32;100395.51;;;27.67;28.18
67803;BME280;54601;51.378;-1.342;2023-06-14T08:35:57;100395.73;;;27.19;28.20
67803;BME280;54601;51.378;-1.342;2023-06-14T08:38:23;100397.16;;;27.76;28.09
67803;BME280;54601;51.378;-1.342;2023-06-14T08:40:50;100396.75;;;27.28;28.17
67803;BME280;54601;51.378;-1.342;2023-06-14T08:43:13;100396.48;;;27.28;28.18
67803;BME280;54601;51.378;-1.342;2023-06-14T08:45:39;100397.59;;;27.33;28.16
67803;BME280;54601;51.378;-1.342;2023-06-14T08:48:06;100400.88;;;27.33;28.17
67803;BME280;54601;51.378;-1.342;2023-06-14T08:50:30;100395.94;;;27.37;28.12
67803;BME280;54601;51.378;-1.342;2023-06-14T08:52:56;100394.49;;;27.63;28.13
67803;BME280;54601;51.378;-1.342;2023-06-14T08:55:21;100392.46;;;27.95;28.09
67803;BME280;54601;51.378;-1.342;2023-06-14T08:57:46;100392.20;;;27.71;28.07
67803;BME280;54601;51.378;-1.342;2023-06-14T09:00:12;100395.82;;;27.45;28.12
67803;BME280;54601;51.378;-1.342;2023-06-14T09:02:36;100396.53;;;27.56;28.04
67803;BME280;54601;51.378;-1.342;2023-06-14T09:05:01;100397.99;;;27.54;28.07
67803;BME280;54601;51.378;-1.342;2023-06-14T09:07:27;100395.20;;;27.53;28.15
67803;BME280;54601;51.378;-1.342;2023-06-14T09:12:17;100393.06;;;27.65;28.05
67803;BME280;54601;51.378;-1.342;2023-06-14T09:14:42;100394.48;;;27.64;28.02
67803;BME280;54601;51.378;-1.342;2023-06-14T09:17:08;100394.97;;;27.65;28.11
67803;BME280;54601;51.378;-1.342;2023-06-14T09:19:34;100401.09;;;27.69;28.05
67803;BME280;54601;51.378;-1.342;2023-06-14T09:21:58;100402.07;;;27.92;28.06
67803;BME280;54601;51.378;-1.342;2023-06-14T09:24:24;100404.09;;;27.72;28.04
67803;BME280;54601;51.378;-1.342;2023-06-14T09:26:50;100408.93;;;27.74;28.09
67803;BME280;54601;51.378;-1.342;2023-06-14T09:29:16;100407.81;;;27.79;28.04
67803;BME280;54601;51.378;-1.342;2023-06-14T09:31:40;100409.82;;;27.83;28.00
67803;BME280;54601;51.378;-1.342;2023-06-14T09:34:05;100404.58;;;27.81;28.11
67803;BME280;54601;51.378;-1.342;2023-06-14T09:36:31;100408.52;;;27.81;28.10
67803;BME280;54601;51.378;-1.342;2023-06-14T09:38:57;100407.35;;;27.79;28.20
67803;BME280;54601;51.378;-1.342;2023-06-14T09:41:25;100409.80;;;27.80;28.21
67803;BME280;54601;51.378;-1.342;2023-06-14T09:43:47;100408.14;;;27.78;28.27
67803;BME280;54601;51.378;-1.342;2023-06-14T09:46:11;100409.99;;;27.82;28.19
67803;BME280;54601;51.378;-1.342;2023-06-14T09:48:37;100412.10;;;27.83;28.20
67803;BME280;54601;51.378;-1.342;2023-06-14T09:51:02;100414.61;;;27.72;28.14
67803;BME280;54601;51.378;-1.342;2023-06-14T09:53:29;100411.76;;;27.87;28.21
67803;BME280;54601;51.378;-1.342;2023-06-14T09:55:54;100406.28;;;27.96;28.12
67803;BME280;54601;51.378;-1.342;2023-06-14T09:58:20;100405.80;;;27.92;28.28
67803;BME280;54601;51.378;-1.342;2023-06-14T10:00:44;100404.59;;;27.99;28.19
67803;BME280;54601;51.378;-1.342;2023-06-14T10:03:12;100404.13;;;27.99;28.17
67803;BME280;54601;51.378;-1.342;2023-06-14T10:05:36;100404.63;;;27.98;28.23
67803;BME280;54601;51.378;-1.342;2023-06-14T10:08:02;100406.47;;;27.98;28.24
67803;BME280;54601;51.378;-1.342;2023-06-14T10:10:24;100408.66;;;28.02;28.23
67803;BME280;54601;51.378;-1.342;2023-06-14T10:12:50;100406.94;;;28.11;28.14
67803;BME280;54601;51.378;-1.342;2023-06-14T10:15:19;100410.18;;;27.79;28.29
67803;BME280;54601;51.378;-1.342;2023-06-14T10:17:46;100405.93;;;28.04;28.30
67803;BME280;54601;51.378;-1.342;2023-06-14T10:20:16;100404.40;;;27.81;28.32
67803;BME280;54601;51.378;-1.342;2023-06-14T10:22:35;100403.82;;;27.79;28.39
67803;BME280;54601;51.378;-1.342;2023-06-14T10:24:56;100402.19;;;27.80;28.40
67803;BME280;54601;51.378;-1.342;2023-06-14T10:27:22;100406.38;;;28.01;28.46
67803;BME280;54601;51.378;-1.342;2023-06-14T10:32:13;100402.14;;;28.04;28.42
67803;BME280;54601;51.378;-1.342;2023-06-14T10:34:38;100400.13;;;28.11;28.36
67803;BME280;54601;51.378;-1.342;2023-06-14T10:37:05;100400.73;;;28.08;28.43
67803;BME280;54601;51.378;-1.342;2023-06-14T10:39:28;100398.24;;;27.84;28.45
67803;BME280;54601;51.378;-1.342;2023-06-14T10:41:55;100399.07;;;28.09;28.44
67803;BME280;54601;51.378;-1.342;2023-06-14T10:46:46;100398.41;;;27.85;28.49
67803;BME280;54601;51.378;-1.342;2023-06-14T10:49:09;100397.48;;;28.07;28.55
67803;BME280;54601;51.378;-1.342;2023-06-14T10:51:39;100397.13;;;28.06;28.55
67803;BME280;54601;51.378;-1.342;2023-06-14T10:54:00;100400.21;;;27.83;28.62
67803;BME280;54601;51.378;-1.342;2023-06-14T10:56:28;100399.48;;;27.82;28.59
67803;BME280;54601;51.378;-1.342;2023-06-14T10:58:50;100398.00;;;28.04;28.62
67803;BME280;54601;51.378;-1.342;2023-06-14T11:01:18;100397.38;;;28.08;28.59
67803;BME280;54601;51.378;-1.342;2023-06-14T11:03:50;100398.41;;;28.05;28.63
67803;BME280;54601;51.378;-1.342;2023-06-14T11:06:14;100396.43;;;28.09;28.63
67803;BME280;54601;51.378;-1.342;2023-06-14T11:10:59;100391.07;;;28.12;28.59
67803;BME280;54601;51.378;-1.342;2023-06-14T11:13:25;100386.51;;;27.92;28.58
67803;BME280;54601;51.378;-1.342;2023-06-14T11:15:48;100385.73;;;28.04;28.76
67803;BME280;54601;51.378;-1.342;2023-06-14T11:18:14;100385.85;;;28.07;28.72
67803;BME280;54601;51.378;-1.342;2023-06-14T11:20:40;100386.71;;;28.09;28.72
67803;BME280;54601;51.378;-1.342;2023-06-14T11:23:04;100387.32;;;28.08;28.75
67803;BME280;54601;51.378;-1.342;2023-06-14T11:25:29;100385.94;;;27.57;28.78
67803;BME280;54601;51.378;-1.342;2023-06-14T11:27:55;100381.13;;;28.05;28.80
67803;BME280;54601;51.378;-1.342;2023-06-14T11:30:20;100376.36;;;28.02;28.83
67803;BME280;54601;51.378;-1.342;2023-06-14T11:32:46;100371.77;;;27.81;28.87
67803;BME280;54601;51.378;-1.342;2023-06-14T11:35:11;100369.49;;;28.02;28.87
67803;BME280;54601;51.378;-1.342;2023-06-14T11:37:36;100377.14;;;28.03;28.87
67803;BME280;54601;51.378;-1.342;2023-06-14T11:40:02;100377.50;;;27.98;28.94
67803;BME280;54601;51.378;-1.342;2023-06-14T11:42:27;100376.08;;;27.99;28.98
67803;BME280;54601;51.378;-1.342;2023-06-14T11:44:53;100374.80;;;27.98;28.95
67803;BME280;54601;51.378;-1.342;2023-06-14T11:47:17;100374.21;;;28.01;28.94
67803;BME280;54601;51.378;-1.342;2023-06-14T11:49:42;100371.45;;;27.99;29.00
67803;BME280;54601;51.378;-1.342;2023-06-14T11:52:08;100366.39;;;27.99;29.03
67803;BME280;54601;51.378;-1.342;2023-06-14T11:54:33;100360.66;;;27.98;29.02
67803;BME280;54601;51.378;-1.342;2023-06-14T11:56:59;100361.05;;;28.01;29.01
67803;BME280;54601;51.378;-1.342;2023-06-14T11:59:24;100356.03;;;27.52;29.02
67803;BME280;54601;51.378;-1.342;2023-06-14T12:01:49;100354.73;;;28.00;29.07
67803;BME280;54601;51.378;-1.342;2023-06-14T12:04:22;100354.47;;;28.07;28.99
67803;BME280;54601;51.378;-1.342;2023-06-14T12:06:40;100344.70;;;27.83;29.02
67803;BME280;54601;51.378;-1.342;2023-06-14T12:09:06;100346.39;;;28.05;29.02
67803;BME280;54601;51.378;-1.342;2023-06-14T12:11:33;100346.17;;;27.99;29.09
67803;BME280;54601;51.378;-1.342;2023-06-14T12:13:56;100350.04;;;27.76;29.11
67803;BME280;54601;51.378;-1.342;2023-06-14T12:16:21;100349.96;;;27.96;29.14
67803;BME280;54601;51.378;-1.342;2023-06-14T12:18:46;100350.72;;;27.76;29.16
67803;BME280;54601;51.378;-1.342;2023-06-14T12:21:11;100355.12;;;27.79;29.08
67803;BME280;54601;51.378;-1.342;2023-06-14T12:23:43;100351.60;;;28.06;29.03
67803;BME280;54601;51.378;-1.342;2023-06-14T12:26:03;100344.86;;;28.00;29.08
67803;BME280;54601;51.378;-1.342;2023-06-14T12:28:31;100345.78;;;28.00;29.06
67803;BME280;54601;51.378;-1.342;2023-06-14T12:30:53;100348.30;;;27.99;29.07
67803;BME280;54601;51.378;-1.342;2023-06-14T12:33:18;100343.00;;;27.76;29.08
67803;BME280;54601;51.378;-1.342;2023-06-14T12:35:43;100348.35;;;28.00;29.09
67803;BME280;54601;51.378;-1.342;2023-06-14T12:38:09;100350.75;;;28.01;29.08
67803;BME280;54601;51.378;-1.342;2023-06-14T12:40:34;100349.95;;;28.01;29.08
67803;BME280;54601;51.378;-1.342;2023-06-14T12:42:59;100347.37;;;27.82;29.06